sensor_id;sensor_type;location;lat;lon;timestamp;temperature;humidity
39665;DHT22;26679;50.872;4.332;2022-10-31T00:01:15;16.50;99.90
39665;DHT22;26679;50.872;4.332;2022-10-31T00:03:41;16.40;99.90
39665;DHT22;26679;50.872;4.332;2022-10-31T00:06:06;16.40;99.90
39665;DHT22;26679;50.872;4.332;2022-10-31T00:08:32;16.20;99.90
39665;DHT22;26679;50.872;4.332;2022-10-31T00:10:57;16.10;99.90
39665;DHT22;26679;50.872;4.332;2022-10-31T00:13:23;16.10;99.90
39665;DHT22;26679;50.872;4.332;2022-10-31T00:15:48;16.10;99.90
39665;DHT22;26679;50.872;4.332;2022-10-31T00:18:14;16.00;99.90
39665;DHT22;26679;50.872;4.332;2022-10-31T00:20:39;16.10;99.90
39665;DHT22;26679;50.872;4.332;2022-10-31T00:23:05;16.00;99.90
39665;DHT22;26679;50.872;4.332;2022-10-31T00:25:35;16.00;99.90
39665;DHT22;26679;50.872;4.332;2022-10-31T00:28:01;16.00;99.90
39665;DHT22;26679;50.872;4.332;2022-10-31T00:30:27;15.90;99.90
39665;DHT22;26679;50.872;4.332;2022-10-31T00:32:52;15.90;99.90
39665;DHT22;26679;50.872;4.332;2022-10-31T00:35:17;15.90;99.90
39665;DHT22;26679;50.872;4.332;2022-10-31T00:37:43;15.90;99.90
39665;DHT22;26679;50.872;4.332;2022-10-31T00:40:09;15.70;99.90
39665;DHT22;26679;50.872;4.332;2022-10-31T00:42:34;15.80;99.90
39665;DHT22;26679;50.872;4.332;2022-10-31T00:45:00;15.80;99.90
39665;DHT22;26679;50.872;4.332;2022-10-31T00:47:25;15.80;99.90
39665;DHT22;26679;50.872;4.332;2022-10-31T00:49:51;15.90;99.90
39665;DHT22;26679;50.872;4.332;2022-10-31T00:52:16;15.90;99.90
39665;DHT22;26679;50.872;4.332;2022-10-31T00:54:42;15.90;99.90
39665;DHT22;26679;50.872;4.332;2022-10-31T00:57:07;15.90;99.90
39665;DHT22;26679;50.872;4.332;2022-10-31T00:59:33;15.90;99.90
39665;DHT22;26679;50.872;4.332;2022-10-31T01:01:58;15.90;99.90
39665;DHT22;26679;50.872;4.332;2022-10-31T01:04:23;15.90;99.90
39665;DHT22;26679;50.872;4.332;2022-10-31T01:06:49;15.80;99.90
39665;DHT22;26679;50.872;4.332;2022-10-31T01:09:14;15.70;99.90
39665;DHT22;26679;50.872;4.332;2022-10-31T01:11:40;15.70;99.90
39665;DHT22;26679;50.872;4.332;2022-10-31T01:14:05;15.70;99.90
39665;DHT22;26679;50.872;4.332;2022-10-31T01:16:31;15.70;99.90
39665;DHT22;26679;50.872;4.332;2022-10-31T01:18:56;15.80;99.90
39665;DHT22;26679;50.872;4.332;2022-10-31T01:21:23;15.90;99.90
39665;DHT22;26679;50.872;4.332;2022-10-31T01:23:49;16.00;99.90
39665;DHT22;26679;50.872;4.332;2022-10-31T01:26:16;15.90;99.90
39665;DHT22;26679;50.872;4.332;2022-10-31T01:28:44;15.90;99.90
39665;DHT22;26679;50.872;4.332;2022-10-31T01:31:10;15.70;99.90
39665;DHT22;26679;50.872;4.332;2022-10-31T01:33:36;15.60;99.90
39665;DHT22;26679;50.872;4.332;2022-10-31T01:36:10;15.50;99.90
39665;DHT22;26679;50.872;4.332;2022-10-31T01:38:36;15.40;99.90
39665;DHT22;26679;50.872;4.332;2022-10-31T01:41:01;15.50;99.90
39665;DHT22;26679;50.872;4.332;2022-10-31T01:46:03;15.50;99.90
39665;DHT22;26679;50.872;4.332;2022-10-31T01:48:29;15.60;99.90
39665;DHT22;26679;50.872;4.332;2022-10-31T01:50:56;15.50;99.90
39665;DHT22;26679;50.872;4.332;2022-10-31T01:53:22;15.50;99.90
39665;DHT22;26679;50.872;4.332;2022-10-31T01:55:47;15.50;99.90
39665;DHT22;26679;50.872;4.332;2022-10-31T01:58:15;15.50;99.90
39665;DHT22;26679;50.872;4.332;2022-10-31T02:00:43;15.50;99.90
39665;DHT22;26679;50.872;4.332;2022-10-31T02:03:09;15.50;99.90
39665;DHT22;26679;50.872;4.332;2022-10-31T02:05:35;15.50;99.90
39665;DHT22;26679;50.872;4.332;2022-10-31T02:08:05;15.50;99.90
39665;DHT22;26679;50.872;4.332;2022-10-31T02:10:32;15.50;99.90
39665;DHT22;26679;50.872;4.332;2022-10-31T02:13:00;15.50;99.90
39665;DHT22;26679;50.872;4.332;2022-10-31T02:15:26;15.50;99.90
39665;DHT22;26679;50.872;4.332;2022-10-31T02:17:53;15.40;99.90
39665;DHT22;26679;50.872;4.332;2022-10-31T02:20:23;15.40;99.90
39665;DHT22;26679;50.872;4.332;2022-10-31T02:22:54;15.30;99.90
39665;DHT22;26679;50.872;4.332;2022-10-31T02:30:30;15.30;99.90
39665;DHT22;26679;50.872;4.332;2022-10-31T02:35:47;15.30;99.90
39665;DHT22;26679;50.872;4.332;2022-10-31T02:45:58;15.30;99.90
39665;DHT22;26679;50.872;4.332;2022-10-31T02:48:28;15.20;99.90
39665;DHT22;26679;50.872;4.332;2022-10-31T02:50:56;15.20;99.90
39665;DHT22;26679;50.872;4.332;2022-10-31T02:53:23;15.20;99.90
39665;DHT22;26679;50.872;4.332;2022-10-31T02:55:56;15.20;99.90
39665;DHT22;26679;50.872;4.332;2022-10-31T02:58:22;15.20;99.90
39665;DHT22;26679;50.872;4.332;2022-10-31T03:00:54;15.20;99.90
39665;DHT22;26679;50.872;4.332;2022-10-31T03:03:31;15.20;99.90
39665;DHT22;26679;50.872;4.332;2022-10-31T03:08:26;15.10;99.90
39665;DHT22;26679;50.872;4.332;2022-10-31T03:10:56;15.00;99.90
39665;DHT22;26679;50.872;4.332;2022-10-31T03:18:34;15.00;99.90
39665;DHT22;26679;50.872;4.332;2022-10-31T03:23:31;15.00;99.90
39665;DHT22;26679;50.872;4.332;2022-10-31T03:26:00;15.10;99.90
39665;DHT22;26679;50.872;4.332;2022-10-31T03:28:29;15.10;99.90
39665;DHT22;26679;50.872;4.332;2022-10-31T03:30:56;15.10;99.90
39665;DHT22;26679;50.872;4.332;2022-10-31T03:33:24;15.10;99.90
39665;DHT22;26679;50.872;4.332;2022-10-31T03:35:51;15.10;99.90
39665;DHT22;26679;50.872;4.332;2022-10-31T03:38:17;15.10;99.90
39665;DHT22;26679;50.872;4.332;2022-10-31T03:40:43;15.10;99.90
39665;DHT22;26679;50.872;4.332;2022-10-31T03:43:12;15.10;99.90
39665;DHT22;26679;50.872;4.332;2022-10-31T03:45:40;15.10;99.90
39665;DHT22;26679;50.872;4.332;2022-10-31T03:48:07;15.10;99.90
39665;DHT22;26679;50.872;4.332;2022-10-31T03:50:36;15.10;99.90
39665;DHT22;26679;50.872;4.332;2022-10-31T03:53:09;15.10;99.90
39665;DHT22;26679;50.872;4.332;2022-10-31T04:00:41;15.10;99.90
39665;DHT22;26679;50.872;4.332;2022-10-31T04:03:09;15.10;99.90
39665;DHT22;26679;50.872;4.332;2022-10-31T04:05:35;15.00;99.90
39665;DHT22;26679;50.872;4.332;2022-10-31T04:08:02;15.10;99.90
39665;DHT22;26679;50.872;4.332;2022-10-31T04:10:29;15.10;99.90
39665;DHT22;26679;50.872;4.332;2022-10-31T04:13:00;15.10;99.90
39665;DHT22;26679;50.872;4.332;2022-10-31T04:15:26;15.00;99.90
39665;DHT22;26679;50.872;4.332;2022-10-31T04:17:53;15.00;99.90
39665;DHT22;26679;50.872;4.332;2022-10-31T04:20:29;15.00;99.90
39665;DHT22;26679;50.872;4.332;2022-10-31T04:22:54;15.00;99.90
39665;DHT22;26679;50.872;4.332;2022-10-31T04:25:20;15.00;99.90
39665;DHT22;26679;50.872;4.332;2022-10-31T04:27:45;14.90;99.90
39665;DHT22;26679;50.872;4.332;2022-10-31T04:30:11;15.00;99.90
39665;DHT22;26679;50.872;4.332;2022-10-31T04:32:36;14.90;99.90
39665;DHT22;26679;50.872;4.332;2022-10-31T04:35:02;14.80;99.90
39665;DHT22;26679;50.872;4.332;2022-10-31T04:37:27;14.80;99.90
39665;DHT22;26679;50.872;4.332;2022-10-31T04:39:53;15.00;99.90
39665;DHT22;26679;50.872;4.332;2022-10-31T04:42:18;14.70;99.90
39665;DHT22;26679;50.872;4.332;2022-10-31T04:44:44;14.60;99.90
39665;DHT22;26679;50.872;4.332;2022-10-31T04:47:09;14.60;99.90
39665;DHT22;26679;50.872;4.332;2022-10-31T04:49:35;14.60;99.90
39665;DHT22;26679;50.872;4.332;2022-10-31T04:52:00;14.60;99.90
39665;DHT22;26679;50.872;4.332;2022-10-31T04:54:26;14.60;99.90
39665;DHT22;26679;50.872;4.332;2022-10-31T04:56:51;14.60;99.90
39665;DHT22;26679;50.872;4.332;2022-10-31T04:59:17;14.70;99.90
39665;DHT22;26679;50.872;4.332;2022-10-31T05:01:42;14.60;99.90
39665;DHT22;26679;50.872;4.332;2022-10-31T05:04:07;14.60;99.90
39665;DHT22;26679;50.872;4.332;2022-10-31T05:06:33;14.50;99.90
39665;DHT22;26679;50.872;4.332;2022-10-31T05:08:58;14.60;99.90
39665;DHT22;26679;50.872;4.332;2022-10-31T05:11:24;14.70;99.90
39665;DHT22;26679;50.872;4.332;2022-10-31T05:13:49;14.80;99.90
39665;DHT22;26679;50.872;4.332;2022-10-31T05:16:15;14.90;99.90
39665;DHT22;26679;50.872;4.332;2022-10-31T05:18:40;14.90;99.90
39665;DHT22;26679;50.872;4.332;2022-10-31T05:21:06;14.90;99.90
39665;DHT22;26679;50.872;4.332;2022-10-31T05:23:31;15.00;99.90
39665;DHT22;26679;50.872;4.332;2022-10-31T05:25:57;15.10;99.90
39665;DHT22;26679;50.872;4.332;2022-10-31T05:28:22;15.10;99.90
39665;DHT22;26679;50.872;4.332;2022-10-31T05:30:48;15.20;99.90
39665;DHT22;26679;50.872;4.332;2022-10-31T05:33:14;15.20;99.90
39665;DHT22;26679;50.872;4.332;2022-10-31T05:35:39;15.20;99.90
39665;DHT22;26679;50.872;4.332;2022-10-31T05:38:05;15.20;99.90
39665;DHT22;26679;50.872;4.332;2022-10-31T05:40:30;15.20;99.90
39665;DHT22;26679;50.872;4.332;2022-10-31T05:42:56;15.10;99.90
39665;DHT22;26679;50.872;4.332;2022-10-31T05:45:24;15.10;99.90
39665;DHT22;26679;50.872;4.332;2022-10-31T05:47:51;15.00;99.90
39665;DHT22;26679;50.872;4.332;2022-10-31T05:50:16;15.00;99.90
39665;DHT22;26679;50.872;4.332;2022-10-31T05:52:42;15.10;99.90
39665;DHT22;26679;50.872;4.332;2022-10-31T05:55:07;15.10;99.90
39665;DHT22;26679;50.872;4.332;2022-10-31T05:57:33;15.10;99.90
39665;DHT22;26679;50.872;4.332;2022-10-31T05:59:59;15.10;99.90
39665;DHT22;26679;50.872;4.332;2022-10-31T06:02:24;15.10;99.90
39665;DHT22;26679;50.872;4.332;2022-10-31T06:04:50;15.10;99.90
39665;DHT22;26679;50.872;4.332;2022-10-31T06:07:17;15.10;99.90
39665;DHT22;26679;50.872;4.332;2022-10-31T06:09:42;15.40;99.90
39665;DHT22;26679;50.872;4.332;2022-10-31T06:12:08;15.30;99.90
39665;DHT22;26679;50.872;4.332;2022-10-31T06:14:33;15.40;99.90
39665;DHT22;26679;50.872;4.332;2022-10-31T06:16:59;15.40;99.90
39665;DHT22;26679;50.872;4.332;2022-10-31T06:19:24;15.40;99.90
39665;DHT22;26679;50.872;4.332;2022-10-31T06:21:50;15.40;99.90
39665;DHT22;26679;50.872;4.332;2022-10-31T06:24:15;15.40;99.90
39665;DHT22;26679;50.872;4.332;2022-10-31T06:26:41;15.40;99.90
39665;DHT22;26679;50.872;4.332;2022-10-31T06:29:07;15.50;99.90
39665;DHT22;26679;50.872;4.332;2022-10-31T06:31:33;15.40;99.90
39665;DHT22;26679;50.872;4.332;2022-10-31T06:33:58;15.40;99.90
39665;DHT22;26679;50.872;4.332;2022-10-31T06:36:24;15.50;99.90
39665;DHT22;26679;50.872;4.332;2022-10-31T06:38:49;15.50;99.90
39665;DHT22;26679;50.872;4.332;2022-10-31T06:41:15;15.50;99.90
39665;DHT22;26679;50.872;4.332;2022-10-31T06:43:40;15.50;99.90
39665;DHT22;26679;50.872;4.332;2022-10-31T06:46:06;15.60;99.90
39665;DHT22;26679;50.872;4.332;2022-10-31T06:48:31;15.60;99.90
39665;DHT22;26679;50.872;4.332;2022-10-31T06:50:58;15.60;99.90
39665;DHT22;26679;50.872;4.332;2022-10-31T06:53:24;15.60;99.90
39665;DHT22;26679;50.872;4.332;2022-10-31T06:55:49;15.70;99.90
39665;DHT22;26679;50.872;4.332;2022-10-31T06:58:15;15.80;99.90
39665;DHT22;26679;50.872;4.332;2022-10-31T07:00:40;15.80;99.90
39665;DHT22;26679;50.872;4.332;2022-10-31T07:03:07;15.90;99.90
39665;DHT22;26679;50.872;4.332;2022-10-31T07:05:34;15.90;99.90
39665;DHT22;26679;50.872;4.332;2022-10-31T07:08:00;15.80;99.90
39665;DHT22;26679;50.872;4.332;2022-10-31T07:10:27;15.90;99.90
39665;DHT22;26679;50.872;4.332;2022-10-31T07:12:55;15.70;99.90
39665;DHT22;26679;50.872;4.332;2022-10-31T07:15:21;15.70;99.90
39665;DHT22;26679;50.872;4.332;2022-10-31T07:17:47;15.70;99.90
39665;DHT22;26679;50.872;4.332;2022-10-31T07:20:12;15.80;99.90
39665;DHT22;26679;50.872;4.332;2022-10-31T07:22:38;15.80;99.90
39665;DHT22;26679;50.872;4.332;2022-10-31T07:25:03;15.70;99.90
39665;DHT22;26679;50.872;4.332;2022-10-31T07:27:34;15.60;99.90
39665;DHT22;26679;50.872;4.332;2022-10-31T07:30:00;15.50;99.90
39665;DHT22;26679;50.872;4.332;2022-10-31T07:32:25;15.30;99.90
39665;DHT22;26679;50.872;4.332;2022-10-31T07:34:51;15.20;99.90
39665;DHT22;26679;50.872;4.332;2022-10-31T07:37:16;15.20;99.90
39665;DHT22;26679;50.872;4.332;2022-10-31T07:39:42;15.20;99.90
39665;DHT22;26679;50.872;4.332;2022-10-31T07:42:07;15.10;99.90
39665;DHT22;26679;50.872;4.332;2022-10-31T07:44:33;15.20;99.90
39665;DHT22;26679;50.872;4.332;2022-10-31T07:46:58;15.10;99.90
39665;DHT22;26679;50.872;4.332;2022-10-31T07:49:24;15.00;99.90
39665;DHT22;26679;50.872;4.332;2022-10-31T07:51:50;15.10;99.90
39665;DHT22;26679;50.872;4.332;2022-10-31T07:54:16;15.10;99.90
39665;DHT22;26679;50.872;4.332;2022-10-31T07:56:41;15.20;99.90
39665;DHT22;26679;50.872;4.332;2022-10-31T07:59:07;15.30;99.90
39665;DHT22;26679;50.872;4.332;2022-10-31T08:01:32;15.40;99.90
39665;DHT22;26679;50.872;4.332;2022-10-31T08:03:58;15.40;99.90
39665;DHT22;26679;50.872;4.332;2022-10-31T08:06:23;15.50;99.90
39665;DHT22;26679;50.872;4.332;2022-10-31T08:08:49;15.50;99.90
39665;DHT22;26679;50.872;4.332;2022-10-31T08:11:14;15.50;99.90
39665;DHT22;26679;50.872;4.332;2022-10-31T08:13:40;15.60;99.90
39665;DHT22;26679;50.872;4.332;2022-10-31T08:16:05;15.70;99.90
39665;DHT22;26679;50.872;4.332;2022-10-31T08:18:32;15.80;99.90
39665;DHT22;26679;50.872;4.332;2022-10-31T08:20:58;16.00;99.90
39665;DHT22;26679;50.872;4.332;2022-10-31T08:23:23;16.00;99.90
39665;DHT22;26679;50.872;4.332;2022-10-31T08:25:49;16.10;99.90
39665;DHT22;26679;50.872;4.332;2022-10-31T08:28:14;16.20;99.90
39665;DHT22;26679;50.872;4.332;2022-10-31T08:30:40;16.20;99.90
39665;DHT22;26679;50.872;4.332;2022-10-31T08:35:32;16.20;99.90
39665;DHT22;26679;50.872;4.332;2022-10-31T08:37:57;16.20;99.90
39665;DHT22;26679;50.872;4.332;2022-10-31T08:40:23;16.20;99.90
39665;DHT22;26679;50.872;4.332;2022-10-31T08:42:56;16.30;99.90
39665;DHT22;26679;50.872;4.332;2022-10-31T08:45:21;16.30;99.90
39665;DHT22;26679;50.872;4.332;2022-10-31T08:47:47;16.30;99.90
39665;DHT22;26679;50.872;4.332;2022-10-31T08:50:12;16.50;99.90
39665;DHT22;26679;50.872;4.332;2022-10-31T08:52:38;16.60;99.90
39665;DHT22;26679;50.872;4.332;2022-10-31T08:55:03;16.70;99.90
39665;DHT22;26679;50.872;4.332;2022-10-31T08:57:29;16.70;99.90
39665;DHT22;26679;50.872;4.332;2022-10-31T08:59:54;16.80;99.90
39665;DHT22;26679;50.872;4.332;2022-10-31T09:02:20;16.80;99.90
39665;DHT22;26679;50.872;4.332;2022-10-31T09:04:45;16.70;99.90
39665;DHT22;26679;50.872;4.332;2022-10-31T09:07:11;16.70;99.90
39665;DHT22;26679;50.872;4.332;2022-10-31T09:09:37;16.70;99.90
39665;DHT22;26679;50.872;4.332;2022-10-31T09:12:02;16.60;99.90
39665;DHT22;26679;50.872;4.332;2022-10-31T09:14:28;16.60;99.90
39665;DHT22;26679;50.872;4.332;2022-10-31T09:16:53;16.70;99.90
39665;DHT22;26679;50.872;4.332;2022-10-31T09:19:19;16.80;99.90
39665;DHT22;26679;50.872;4.332;2022-10-31T09:21:44;16.80;99.90
39665;DHT22;26679;50.872;4.332;2022-10-31T09:24:10;16.90;99.90
39665;DHT22;26679;50.872;4.332;2022-10-31T09:26:35;16.90;99.90
39665;DHT22;26679;50.872;4.332;2022-10-31T09:29:01;16.90;99.90
39665;DHT22;26679;50.872;4.332;2022-10-31T09:31:27;16.90;99.90
39665;DHT22;26679;50.872;4.332;2022-10-31T09:33:53;16.90;99.90
39665;DHT22;26679;50.872;4.332;2022-10-31T09:36:19;17.00;99.90
39665;DHT22;26679;50.872;4.332;2022-10-31T09:38:44;16.90;99.90
39665;DHT22;26679;50.872;4.332;2022-10-31T09:54:10;17.00;99.90
39665;DHT22;26679;50.872;4.332;2022-10-31T09:56:37;17.20;99.90
39665;DHT22;26679;50.872;4.332;2022-10-31T09:59:03;17.30;99.90
39665;DHT22;26679;50.872;4.332;2022-10-31T10:01:32;17.40;99.90
39665;DHT22;26679;50.872;4.332;2022-10-31T10:04:05;17.50;99.90
39665;DHT22;26679;50.872;4.332;2022-10-31T10:06:36;17.60;99.90
39665;DHT22;26679;50.872;4.332;2022-10-31T10:09:04;17.70;99.90
39665;DHT22;26679;50.872;4.332;2022-10-31T10:11:33;17.70;99.90
39665;DHT22;26679;50.872;4.332;2022-10-31T10:26:54;18.40;99.90
39665;DHT22;26679;50.872;4.332;2022-10-31T10:29:34;18.40;99.90
39665;DHT22;26679;50.872;4.332;2022-10-31T10:32:04;18.30;99.90
39665;DHT22;26679;50.872;4.332;2022-10-31T10:34:40;18.20;99.90
39665;DHT22;26679;50.872;4.332;2022-10-31T10:39:45;18.30;99.90
39665;DHT22;26679;50.872;4.332;2022-10-31T10:42:13;18.30;99.90
39665;DHT22;26679;50.872;4.332;2022-10-31T10:44:49;18.30;99.90
39665;DHT22;26679;50.872;4.332;2022-10-31T10:47:25;18.30;99.90
39665;DHT22;26679;50.872;4.332;2022-10-31T10:50:03;18.20;99.90
39665;DHT22;26679;50.872;4.332;2022-10-31T10:52:54;18.20;99.90
39665;DHT22;26679;50.872;4.332;2022-10-31T10:55:27;18.30;99.90
39665;DHT22;26679;50.872;4.332;2022-10-31T10:58:16;18.40;99.90
39665;DHT22;26679;50.872;4.332;2022-10-31T11:00:45;18.40;99.90
39665;DHT22;26679;50.872;4.332;2022-10-31T11:03:15;18.30;99.90
39665;DHT22;26679;50.872;4.332;2022-10-31T11:08:22;18.50;99.90
39665;DHT22;26679;50.872;4.332;2022-10-31T11:10:56;18.70;99.90
39665;DHT22;26679;50.872;4.332;2022-10-31T11:13:22;19.00;99.90
39665;DHT22;26679;50.872;4.332;2022-10-31T11:15:53;19.30;99.90
39665;DHT22;26679;50.872;4.332;2022-10-31T11:18:21;19.50;99.90
39665;DHT22;26679;50.872;4.332;2022-10-31T11:23:24;19.80;99.90
39665;DHT22;26679;50.872;4.332;2022-10-31T11:25:57;19.70;99.90
39665;DHT22;26679;50.872;4.332;2022-10-31T11:28:23;19.60;99.90
39665;DHT22;26679;50.872;4.332;2022-10-31T11:30:50;19.60;99.90
39665;DHT22;26679;50.872;4.332;2022-10-31T11:35:53;19.70;99.90
39665;DHT22;26679;50.872;4.332;2022-10-31T11:38:19;19.80;99.90
39665;DHT22;26679;50.872;4.332;2022-10-31T11:43:22;20.10;99.90
39665;DHT22;26679;50.872;4.332;2022-10-31T11:45:48;20.20;99.90
39665;DHT22;26679;50.872;4.332;2022-10-31T11:48:18;20.00;99.90
39665;DHT22;26679;50.872;4.332;2022-10-31T11:50:52;19.90;99.90
39665;DHT22;26679;50.872;4.332;2022-10-31T11:53:21;20.00;99.90
39665;DHT22;26679;50.872;4.332;2022-10-31T11:55:50;20.00;99.90
39665;DHT22;26679;50.872;4.332;2022-10-31T11:58:25;20.10;99.90
39665;DHT22;26679;50.872;4.332;2022-10-31T12:00:52;20.40;99.90
39665;DHT22;26679;50.872;4.332;2022-10-31T12:08:23;20.90;99.90
39665;DHT22;26679;50.872;4.332;2022-10-31T12:11:15;21.20;99.90
39665;DHT22;26679;50.872;4.332;2022-10-31T12:32:00;21.80;99.90
39665;DHT22;26679;50.872;4.332;2022-10-31T12:52:37;21.40;99.90
39665;DHT22;26679;50.872;4.332;2022-10-31T12:57:42;21.20;99.90
39665;DHT22;26679;50.872;4.332;2022-10-31T13:07:52;20.90;99.90
39665;DHT22;26679;50.872;4.332;2022-10-31T13:10:20;21.10;99.90
39665;DHT22;26679;50.872;4.332;2022-10-31T13:12:48;21.10;99.90
39665;DHT22;26679;50.872;4.332;2022-10-31T13:15:18;21.10;99.90
39665;DHT22;26679;50.872;4.332;2022-10-31T13:17:48;21.10;99.90
39665;DHT22;26679;50.872;4.332;2022-10-31T13:20:17;21.30;99.90
39665;DHT22;26679;50.872;4.332;2022-10-31T13:22:45;21.20;99.90
39665;DHT22;26679;50.872;4.332;2022-10-31T13:25:16;21.00;99.90
39665;DHT22;26679;50.872;4.332;2022-10-31T13:35:16;20.40;99.90
39665;DHT22;26679;50.872;4.332;2022-10-31T13:37:46;20.30;99.90
39665;DHT22;26679;50.872;4.332;2022-10-31T13:45:25;20.30;99.90
39665;DHT22;26679;50.872;4.332;2022-10-31T13:47:58;20.30;99.90
39665;DHT22;26679;50.872;4.332;2022-10-31T13:50:26;20.00;99.90
39665;DHT22;26679;50.872;4.332;2022-10-31T13:52:52;19.80;99.90
39665;DHT22;26679;50.872;4.332;2022-10-31T13:55:35;19.90;99.90
39665;DHT22;26679;50.872;4.332;2022-10-31T13:58:03;19.80;99.90
39665;DHT22;26679;50.872;4.332;2022-10-31T14:00:29;19.90;99.90
39665;DHT22;26679;50.872;4.332;2022-10-31T14:03:00;20.00;99.90
39665;DHT22;26679;50.872;4.332;2022-10-31T14:05:27;20.10;99.90
39665;DHT22;26679;50.872;4.332;2022-10-31T14:07:54;20.10;99.90
39665;DHT22;26679;50.872;4.332;2022-10-31T14:10:27;20.00;99.90
39665;DHT22;26679;50.872;4.332;2022-10-31T14:13:04;19.90;99.90
39665;DHT22;26679;50.872;4.332;2022-10-31T14:15:30;20.00;99.90
39665;DHT22;26679;50.872;4.332;2022-10-31T14:18:05;20.30;99.90
39665;DHT22;26679;50.872;4.332;2022-10-31T14:22:58;20.40;99.90
39665;DHT22;26679;50.872;4.332;2022-10-31T14:25:24;20.50;99.90
39665;DHT22;26679;50.872;4.332;2022-10-31T14:27:50;20.60;99.90
39665;DHT22;26679;50.872;4.332;2022-10-31T14:30:18;20.60;99.90
39665;DHT22;26679;50.872;4.332;2022-10-31T14:32:43;20.70;99.90
39665;DHT22;26679;50.872;4.332;2022-10-31T14:35:12;20.80;99.90
39665;DHT22;26679;50.872;4.332;2022-10-31T14:48:05;20.70;99.90
39665;DHT22;26679;50.872;4.332;2022-10-31T14:50:41;20.70;99.90
39665;DHT22;26679;50.872;4.332;2022-10-31T14:53:10;20.60;99.90
39665;DHT22;26679;50.872;4.332;2022-10-31T14:55:39;20.60;99.90
39665;DHT22;26679;50.872;4.332;2022-10-31T14:58:07;20.70;99.90
39665;DHT22;26679;50.872;4.332;2022-10-31T15:00:33;20.80;99.90
39665;DHT22;26679;50.872;4.332;2022-10-31T15:05:41;20.90;99.90
39665;DHT22;26679;50.872;4.332;2022-10-31T15:08:13;20.90;99.90
39665;DHT22;26679;50.872;4.332;2022-10-31T15:10:39;20.80;99.90
39665;DHT22;26679;50.872;4.332;2022-10-31T15:13:17;20.70;99.90
39665;DHT22;26679;50.872;4.332;2022-10-31T15:15:44;20.70;99.90
39665;DHT22;26679;50.872;4.332;2022-10-31T15:18:17;20.40;99.90
39665;DHT22;26679;50.872;4.332;2022-10-31T15:20:43;20.30;99.90
39665;DHT22;26679;50.872;4.332;2022-10-31T15:23:10;20.20;99.90
39665;DHT22;26679;50.872;4.332;2022-10-31T15:25:36;20.20;99.90
39665;DHT22;26679;50.872;4.332;2022-10-31T15:28:12;20.20;99.90
39665;DHT22;26679;50.872;4.332;2022-10-31T15:30:37;20.10;99.90
39665;DHT22;26679;50.872;4.332;2022-10-31T15:33:14;20.00;99.90
39665;DHT22;26679;50.872;4.332;2022-10-31T15:35:40;19.90;99.90
39665;DHT22;26679;50.872;4.332;2022-10-31T15:38:07;19.90;99.90
39665;DHT22;26679;50.872;4.332;2022-10-31T15:40:33;19.90;99.90
39665;DHT22;26679;50.872;4.332;2022-10-31T15:43:02;19.90;99.90
39665;DHT22;26679;50.872;4.332;2022-10-31T15:45:29;19.80;99.90
39665;DHT22;26679;50.872;4.332;2022-10-31T15:47:58;19.70;99.90
39665;DHT22;26679;50.872;4.332;2022-10-31T15:53:01;19.60;99.90
39665;DHT22;26679;50.872;4.332;2022-10-31T15:55:29;19.50;99.90
39665;DHT22;26679;50.872;4.332;2022-10-31T15:57:59;19.40;99.90
39665;DHT22;26679;50.872;4.332;2022-10-31T16:00:26;19.30;99.90
39665;DHT22;26679;50.872;4.332;2022-10-31T16:05:34;19.30;99.90
39665;DHT22;26679;50.872;4.332;2022-10-31T16:08:00;19.20;99.90
39665;DHT22;26679;50.872;4.332;2022-10-31T16:10:26;19.20;99.90
39665;DHT22;26679;50.872;4.332;2022-10-31T16:12:51;19.10;99.90
39665;DHT22;26679;50.872;4.332;2022-10-31T16:15:17;19.10;99.90
39665;DHT22;26679;50.872;4.332;2022-10-31T16:17:45;19.10;99.90
39665;DHT22;26679;50.872;4.332;2022-10-31T16:20:16;19.00;99.90
39665;DHT22;26679;50.872;4.332;2022-10-31T16:22:46;18.90;99.90
39665;DHT22;26679;50.872;4.332;2022-10-31T16:25:17;18.80;99.90
39665;DHT22;26679;50.872;4.332;2022-10-31T16:27:51;18.80;99.90
39665;DHT22;26679;50.872;4.332;2022-10-31T16:33:02;18.80;99.90
39665;DHT22;26679;50.872;4.332;2022-10-31T16:35:37;18.70;99.90
39665;DHT22;26679;50.872;4.332;2022-10-31T16:38:03;18.70;99.90
39665;DHT22;26679;50.872;4.332;2022-10-31T16:40:29;18.60;99.90
39665;DHT22;26679;50.872;4.332;2022-10-31T16:42:56;18.60;99.90
39665;DHT22;26679;50.872;4.332;2022-10-31T16:45:23;18.50;99.90
39665;DHT22;26679;50.872;4.332;2022-10-31T16:47:49;18.50;99.90
39665;DHT22;26679;50.872;4.332;2022-10-31T16:50:16;18.50;99.90
39665;DHT22;26679;50.872;4.332;2022-10-31T16:52:42;18.50;99.90
39665;DHT22;26679;50.872;4.332;2022-10-31T16:55:10;18.40;99.90
39665;DHT22;26679;50.872;4.332;2022-10-31T16:57:36;18.40;99.90
39665;DHT22;26679;50.872;4.332;2022-10-31T17:00:02;18.40;99.90
39665;DHT22;26679;50.872;4.332;2022-10-31T17:02:28;18.40;99.90
39665;DHT22;26679;50.872;4.332;2022-10-31T17:04:54;18.40;99.90
39665;DHT22;26679;50.872;4.332;2022-10-31T17:07:19;18.40;99.90
39665;DHT22;26679;50.872;4.332;2022-10-31T17:09:45;18.40;99.90
39665;DHT22;26679;50.872;4.332;2022-10-31T17:12:15;18.30;99.90
39665;DHT22;26679;50.872;4.332;2022-10-31T17:14:47;18.30;99.90
39665;DHT22;26679;50.872;4.332;2022-10-31T17:17:15;18.40;99.90
39665;DHT22;26679;50.872;4.332;2022-10-31T17:19:40;18.40;99.90
39665;DHT22;26679;50.872;4.332;2022-10-31T17:22:07;18.30;99.90
39665;DHT22;26679;50.872;4.332;2022-10-31T17:24:33;18.30;99.90
39665;DHT22;26679;50.872;4.332;2022-10-31T17:26:59;18.30;99.90
39665;DHT22;26679;50.872;4.332;2022-10-31T17:29:24;18.30;99.90
39665;DHT22;26679;50.872;4.332;2022-10-31T17:31:50;18.30;99.90
39665;DHT22;26679;50.872;4.332;2022-10-31T17:34:15;18.30;99.90
39665;DHT22;26679;50.872;4.332;2022-10-31T17:36:48;18.30;99.90
39665;DHT22;26679;50.872;4.332;2022-10-31T17:39:13;18.40;99.90
39665;DHT22;26679;50.872;4.332;2022-10-31T17:41:39;18.30;99.90
39665;DHT22;26679;50.872;4.332;2022-10-31T17:44:04;18.30;99.90
39665;DHT22;26679;50.872;4.332;2022-10-31T17:46:30;18.40;99.90
39665;DHT22;26679;50.872;4.332;2022-10-31T17:48:55;18.30;99.90
39665;DHT22;26679;50.872;4.332;2022-10-31T17:51:21;18.30;99.90
39665;DHT22;26679;50.872;4.332;2022-10-31T17:53:47;18.20;99.90
39665;DHT22;26679;50.872;4.332;2022-10-31T17:56:12;18.10;99.90
39665;DHT22;26679;50.872;4.332;2022-10-31T17:58:38;18.00;99.90
39665;DHT22;26679;50.872;4.332;2022-10-31T18:01:07;18.10;99.90
39665;DHT22;26679;50.872;4.332;2022-10-31T18:03:33;18.10;99.90
39665;DHT22;26679;50.872;4.332;2022-10-31T18:05:59;18.00;99.90
39665;DHT22;26679;50.872;4.332;2022-10-31T18:08:29;17.90;99.90
39665;DHT22;26679;50.872;4.332;2022-10-31T18:10:55;17.90;99.90
39665;DHT22;26679;50.872;4.332;2022-10-31T18:13:24;17.90;99.90